sensor_id;sensor_type;location;lat;lon;timestamp;P1;P2;P0
72509;PMS5003;60532;56.114;40.350;2023-04-30T00:00:23;17.00;15.00;7.25
72509;PMS5003;60532;56.114;40.350;2023-04-30T00:02:23;16.00;16.00;7.00
72509;PMS5003;60532;56.114;40.350;2023-04-30T00:04:24;17.50;12.00;6.25
72509;PMS5003;60532;56.114;40.350;2023-04-30T00:06:24;15.75;14.00;7.00
72509;PMS5003;60532;56.114;40.350;2023-04-30T00:08:25;14.50;13.00;6.00
72509;PMS5003;60532;56.114;40.350;2023-04-30T00:10:26;12.75;10.75;5.50
72509;PMS5003;60532;56.114;40.350;2023-04-30T00:12:26;14.50;14.50;7.00
72509;PMS5003;60532;56.114;40.350;2023-04-30T00:14:27;12.00;11.25;7.00
72509;PMS5003;60532;56.114;40.350;2023-04-30T00:16:27;15.50;12.75;6.00
72509;PMS5003;60532;56.114;40.350;2023-04-30T00:18:28;16.50;11.50;6.00
72509;PMS5003;60532;56.114;40.350;2023-04-30T00:20:28;15.50;13.00;7.00
72509;PMS5003;60532;56.114;40.350;2023-04-30T00:22:28;15.00;14.25;8.00
72509;PMS5003;60532;56.114;40.350;2023-04-30T00:24:29;17.00;13.25;7.00
72509;PMS5003;60532;56.114;40.350;2023-04-30T00:26:29;12.75;10.25;4.00
72509;PMS5003;60532;56.114;40.350;2023-04-30T00:28:30;16.00;14.00;6.75
72509;PMS5003;60532;56.114;40.350;2023-04-30T00:30:30;16.50;15.00;6.00
72509;PMS5003;60532;56.114;40.350;2023-04-30T00:32:31;15.50;14.00;6.25
72509;PMS5003;60532;56.114;40.350;2023-04-30T00:34:31;13.50;12.50;4.50
72509;PMS5003;60532;56.114;40.350;2023-04-30T00:36:32;15.75;14.75;6.00
72509;PMS5003;60532;56.114;40.350;2023-04-30T00:38:32;15.25;15.25;7.50
72509;PMS5003;60532;56.114;40.350;2023-04-30T00:40:33;19.00;16.00;8.00
72509;PMS5003;60532;56.114;40.350;2023-04-30T00:42:34;16.40;14.60;7.00
72509;PMS5003;60532;56.114;40.350;2023-04-30T00:44:34;13.00;13.00;7.25
72509;PMS5003;60532;56.114;40.350;2023-04-30T00:46:35;15.25;14.00;7.00
72509;PMS5003;60532;56.114;40.350;2023-04-30T00:48:35;22.00;16.25;8.00
72509;PMS5003;60532;56.114;40.350;2023-04-30T00:50:36;20.75;16.00;10.00
72509;PMS5003;60532;56.114;40.350;2023-04-30T00:52:37;13.00;12.00;4.50
72509;PMS5003;60532;56.114;40.350;2023-04-30T00:54:37;19.00;15.00;8.00
72509;PMS5003;60532;56.114;40.350;2023-04-30T00:56:38;17.25;16.00;8.50
72509;PMS5003;60532;56.114;40.350;2023-04-30T00:58:38;14.50;12.25;7.00
72509;PMS5003;60532;56.114;40.350;2023-04-30T01:00:40;20.60;18.20;7.80
72509;PMS5003;60532;56.114;40.350;2023-04-30T01:02:45;19.80;16.60;8.00
72509;PMS5003;60532;56.114;40.350;2023-04-30T01:04:46;24.75;20.00;10.50
72509;PMS5003;60532;56.114;40.350;2023-04-30T01:06:47;22.25;20.00;12.00
72509;PMS5003;60532;56.114;40.350;2023-04-30T01:08:47;14.25;13.25;7.00
72509;PMS5003;60532;56.114;40.350;2023-04-30T01:10:53;20.75;17.00;10.00
72509;PMS5003;60532;56.114;40.350;2023-04-30T01:12:57;20.80;19.00;9.60
72509;PMS5003;60532;56.114;40.350;2023-04-30T01:15:07;19.20;15.80;7.00
72509;PMS5003;60532;56.114;40.350;2023-04-30T01:17:17;17.20;16.00;9.20
72509;PMS5003;60532;56.114;40.350;2023-04-30T01:21:40;16.80;11.00;5.20
72509;PMS5003;60532;56.114;40.350;2023-04-30T01:28:19;17.00;16.40;7.60
72509;PMS5003;60532;56.114;40.350;2023-04-30T01:30:20;19.40;15.20;10.00
72509;PMS5003;60532;56.114;40.350;2023-04-30T01:32:21;17.20;15.80;7.00
72509;PMS5003;60532;56.114;40.350;2023-04-30T01:34:22;25.75;19.75;8.00
72509;PMS5003;60532;56.114;40.350;2023-04-30T01:36:32;19.33;16.67;8.00
72509;PMS5003;60532;56.114;40.350;2023-04-30T01:40:47;23.25;19.75;10.00
72509;PMS5003;60532;56.114;40.350;2023-04-30T01:53:39;18.75;17.50;9.25
72509;PMS5003;60532;56.114;40.350;2023-04-30T01:55:49;14.60;12.00;6.00
72509;PMS5003;60532;56.114;40.350;2023-04-30T01:58:01;14.00;12.40;6.20
72509;PMS5003;60532;56.114;40.350;2023-04-30T02:00:02;20.75;18.00;8.25
72509;PMS5003;60532;56.114;40.350;2023-04-30T02:02:04;19.20;15.00;7.20
72509;PMS5003;60532;56.114;40.350;2023-04-30T02:04:05;19.40;18.40;9.20
72509;PMS5003;60532;56.114;40.350;2023-04-30T02:06:06;20.00;19.00;10.00
72509;PMS5003;60532;56.114;40.350;2023-04-30T02:08:06;18.25;16.00;10.00
72509;PMS5003;60532;56.114;40.350;2023-04-30T02:10:07;16.00;15.25;8.00
72509;PMS5003;60532;56.114;40.350;2023-04-30T02:12:07;15.75;13.75;7.00
72509;PMS5003;60532;56.114;40.350;2023-04-30T02:14:08;21.75;18.00;8.00
72509;PMS5003;60532;56.114;40.350;2023-04-30T02:16:08;17.25;17.00;8.25
72509;PMS5003;60532;56.114;40.350;2023-04-30T02:18:09;15.00;15.00;8.00
72509;PMS5003;60532;56.114;40.350;2023-04-30T02:20:09;16.00;13.75;7.75
72509;PMS5003;60532;56.114;40.350;2023-04-30T02:22:10;17.50;17.50;8.00
72509;PMS5003;60532;56.114;40.350;2023-04-30T02:24:10;25.25;21.25;8.00
72509;PMS5003;60532;56.114;40.350;2023-04-30T02:26:11;16.75;15.00;5.25
72509;PMS5003;60532;56.114;40.350;2023-04-30T02:28:11;13.50;13.50;8.00
72509;PMS5003;60532;56.114;40.350;2023-04-30T02:30:12;13.00;13.00;7.50
72509;PMS5003;60532;56.114;40.350;2023-04-30T02:32:12;15.00;15.00;7.00
72509;PMS5003;60532;56.114;40.350;2023-04-30T02:34:13;20.60;18.60;9.20
72509;PMS5003;60532;56.114;40.350;2023-04-30T02:36:14;18.50;17.25;8.00
72509;PMS5003;60532;56.114;40.350;2023-04-30T02:38:14;18.00;16.25;8.50
72509;PMS5003;60532;56.114;40.350;2023-04-30T02:40:15;12.00;11.25;6.00
72509;PMS5003;60532;56.114;40.350;2023-04-30T02:42:15;17.50;16.50;7.00
72509;PMS5003;60532;56.114;40.350;2023-04-30T02:44:16;22.00;16.00;7.00
72509;PMS5003;60532;56.114;40.350;2023-04-30T02:46:16;20.00;14.50;7.25
72509;PMS5003;60532;56.114;40.350;2023-04-30T02:48:17;21.00;18.40;9.20
72509;PMS5003;60532;56.114;40.350;2023-04-30T02:50:18;16.75;16.75;9.50
72509;PMS5003;60532;56.114;40.350;2023-04-30T02:52:18;14.75;12.75;7.00
72509;PMS5003;60532;56.114;40.350;2023-04-30T02:54:18;17.50;16.00;8.25
72509;PMS5003;60532;56.114;40.350;2023-04-30T02:56:19;16.25;15.25;9.00
72509;PMS5003;60532;56.114;40.350;2023-04-30T02:58:20;16.60;16.60;7.00
72509;PMS5003;60532;56.114;40.350;2023-04-30T03:00:20;12.00;6.75;4.00
72509;PMS5003;60532;56.114;40.350;2023-04-30T03:02:21;18.50;18.00;9.00
72509;PMS5003;60532;56.114;40.350;2023-04-30T03:04:22;17.00;14.20;6.80
72509;PMS5003;60532;56.114;40.350;2023-04-30T03:06:23;16.50;15.00;7.00
72509;PMS5003;60532;56.114;40.350;2023-04-30T03:08:23;12.25;10.50;7.00
72509;PMS5003;60532;56.114;40.350;2023-04-30T03:10:24;15.80;15.20;6.80
72509;PMS5003;60532;56.114;40.350;2023-04-30T03:12:25;18.00;12.00;7.00
72509;PMS5003;60532;56.114;40.350;2023-04-30T03:14:25;14.50;14.25;7.50
72509;PMS5003;60532;56.114;40.350;2023-04-30T03:16:25;14.50;13.50;6.75
72509;PMS5003;60532;56.114;40.350;2023-04-30T03:18:27;14.50;11.50;6.00
72509;PMS5003;60532;56.114;40.350;2023-04-30T03:20:27;19.40;13.80;5.40
72509;PMS5003;60532;56.114;40.350;2023-04-30T03:22:29;15.75;13.75;7.00
72509;PMS5003;60532;56.114;40.350;2023-04-30T03:24:29;14.80;12.00;7.40
72509;PMS5003;60532;56.114;40.350;2023-04-30T03:26:30;17.50;13.75;7.00
72509;PMS5003;60532;56.114;40.350;2023-04-30T03:28:30;13.00;11.00;3.00
72509;PMS5003;60532;56.114;40.350;2023-04-30T03:30:31;12.25;10.25;5.50
72509;PMS5003;60532;56.114;40.350;2023-04-30T03:32:31;11.00;10.50;6.50
72509;PMS5003;60532;56.114;40.350;2023-04-30T03:34:32;13.25;12.00;7.00
72509;PMS5003;60532;56.114;40.350;2023-04-30T03:36:32;11.75;11.75;7.00
72509;PMS5003;60532;56.114;40.350;2023-04-30T03:38:33;13.40;11.60;7.40
72509;PMS5003;60532;56.114;40.350;2023-04-30T03:40:34;12.50;11.25;7.50
72509;PMS5003;60532;56.114;40.350;2023-04-30T03:42:34;9.75;9.00;1.75
72509;PMS5003;60532;56.114;40.350;2023-04-30T03:44:35;12.25;10.75;5.50
72509;PMS5003;60532;56.114;40.350;2023-04-30T03:46:36;10.20;9.40;5.00
72509;PMS5003;60532;56.114;40.350;2023-04-30T03:48:37;11.50;8.50;4.75
72509;PMS5003;60532;56.114;40.350;2023-04-30T03:50:37;11.50;8.50;4.00
72509;PMS5003;60532;56.114;40.350;2023-04-30T03:52:38;10.25;9.50;5.00
72509;PMS5003;60532;56.114;40.350;2023-04-30T03:54:38;9.25;9.25;4.75
72509;PMS5003;60532;56.114;40.350;2023-04-30T03:56:39;8.00;8.00;3.25
72509;PMS5003;60532;56.114;40.350;2023-04-30T03:58:40;9.40;9.20;4.00
72509;PMS5003;60532;56.114;40.350;2023-04-30T04:00:40;11.00;10.50;5.00
72509;PMS5003;60532;56.114;40.350;2023-04-30T04:02:41;6.00;6.00;4.00
72509;PMS5003;60532;56.114;40.350;2023-04-30T04:04:41;5.00;5.00;3.00
72509;PMS5003;60532;56.114;40.350;2023-04-30T04:06:42;6.75;6.75;4.25
72509;PMS5003;60532;56.114;40.350;2023-04-30T04:08:42;6.00;6.00;3.00
72509;PMS5003;60532;56.114;40.350;2023-04-30T04:10:43;10.00;7.50;4.00
72509;PMS5003;60532;56.114;40.350;2023-04-30T04:12:44;8.25;6.50;3.50
72509;PMS5003;60532;56.114;40.350;2023-04-30T04:14:45;4.60;4.60;2.60
72509;PMS5003;60532;56.114;40.350;2023-04-30T04:16:45;6.25;6.25;2.50
72509;PMS5003;60532;56.114;40.350;2023-04-30T04:18:46;4.25;4.25;3.25
72509;PMS5003;60532;56.114;40.350;2023-04-30T04:20:46;7.00;7.00;4.00
72509;PMS5003;60532;56.114;40.350;2023-04-30T04:22:47;9.50;7.00;4.00
72509;PMS5003;60532;56.114;40.350;2023-04-30T04:24:48;7.75;6.00;4.00
72509;PMS5003;60532;56.114;40.350;2023-04-30T04:26:48;7.50;7.50;4.00
72509;PMS5003;60532;56.114;40.350;2023-04-30T04:28:49;7.00;7.00;4.25
72509;PMS5003;60532;56.114;40.350;2023-04-30T04:30:49;6.00;6.00;3.50
72509;PMS5003;60532;56.114;40.350;2023-04-30T04:32:50;5.75;5.75;3.00
72509;PMS5003;60532;56.114;40.350;2023-04-30T04:34:53;9.40;7.40;4.40
72509;PMS5003;60532;56.114;40.350;2023-04-30T04:36:54;11.20;9.40;5.00
72509;PMS5003;60532;56.114;40.350;2023-04-30T04:38:55;6.75;5.75;3.75
72509;PMS5003;60532;56.114;40.350;2023-04-30T04:41:01;6.00;6.00;3.00
72509;PMS5003;60532;56.114;40.350;2023-04-30T04:43:02;7.00;7.00;4.00
72509;PMS5003;60532;56.114;40.350;2023-04-30T04:45:05;8.25;6.75;4.00
72509;PMS5003;60532;56.114;40.350;2023-04-30T04:47:07;8.20;7.00;4.00
72509;PMS5003;60532;56.114;40.350;2023-04-30T04:49:07;6.25;5.50;3.00
72509;PMS5003;60532;56.114;40.350;2023-04-30T04:51:08;6.00;6.00;4.00
72509;PMS5003;60532;56.114;40.350;2023-04-30T04:53:09;6.80;6.80;4.20
72509;PMS5003;60532;56.114;40.350;2023-04-30T04:55:09;8.00;8.00;3.75
72509;PMS5003;60532;56.114;40.350;2023-04-30T04:57:11;8.60;7.20;4.20
72509;PMS5003;60532;56.114;40.350;2023-04-30T04:59:11;6.50;6.50;4.00
72509;PMS5003;60532;56.114;40.350;2023-04-30T05:01:12;6.75;6.75;4.00
72509;PMS5003;60532;56.114;40.350;2023-04-30T05:03:12;7.00;7.00;5.00
72509;PMS5003;60532;56.114;40.350;2023-04-30T05:05:13;10.00;10.00;4.00
72509;PMS5003;60532;56.114;40.350;2023-04-30T05:07:13;9.75;9.75;5.50
72509;PMS5003;60532;56.114;40.350;2023-04-30T05:09:14;7.25;5.25;3.00
72509;PMS5003;60532;56.114;40.350;2023-04-30T05:11:14;7.75;6.25;4.00
72509;PMS5003;60532;56.114;40.350;2023-04-30T05:13:15;10.00;8.40;4.60
72509;PMS5003;60532;56.114;40.350;2023-04-30T05:15:16;8.75;6.75;4.75
72509;PMS5003;60532;56.114;40.350;2023-04-30T05:17:16;11.50;7.00;4.00
72509;PMS5003;60532;56.114;40.350;2023-04-30T05:19:17;10.75;8.75;5.75
72509;PMS5003;60532;56.114;40.350;2023-04-30T05:21:17;6.00;6.00;3.00
72509;PMS5003;60532;56.114;40.350;2023-04-30T05:23:18;4.50;4.00;2.00
72509;PMS5003;60532;56.114;40.350;2023-04-30T05:25:18;5.00;3.25;1.25
72509;PMS5003;60532;56.114;40.350;2023-04-30T05:27:19;6.50;6.50;4.00
72509;PMS5003;60532;56.114;40.350;2023-04-30T05:29:20;8.20;6.00;4.00
72509;PMS5003;60532;56.114;40.350;2023-04-30T05:31:20;6.00;6.00;3.00
72509;PMS5003;60532;56.114;40.350;2023-04-30T05:33:21;6.50;6.00;4.00
72509;PMS5003;60532;56.114;40.350;2023-04-30T05:35:21;9.25;7.75;4.00
72509;PMS5003;60532;56.114;40.350;2023-04-30T05:37:22;5.00;5.00;3.00
72509;PMS5003;60532;56.114;40.350;2023-04-30T05:39:22;8.00;6.00;4.00
72509;PMS5003;60532;56.114;40.350;2023-04-30T05:41:23;5.75;5.75;4.00
72509;PMS5003;60532;56.114;40.350;2023-04-30T05:43:23;7.75;6.00;3.50
72509;PMS5003;60532;56.114;40.350;2023-04-30T05:45:24;7.00;7.00;3.75
72509;PMS5003;60532;56.114;40.350;2023-04-30T05:47:24;5.50;5.00;3.00
72509;PMS5003;60532;56.114;40.350;2023-04-30T05:49:25;6.00;6.00;2.75
72509;PMS5003;60532;56.114;40.350;2023-04-30T05:51:26;6.00;6.00;2.40
72509;PMS5003;60532;56.114;40.350;2023-04-30T05:53:27;7.00;7.00;3.00
72509;PMS5003;60532;56.114;40.350;2023-04-30T05:55:27;5.25;4.00;2.00
72509;PMS5003;60532;56.114;40.350;2023-04-30T05:57:28;5.50;4.75;2.75
72509;PMS5003;60532;56.114;40.350;2023-04-30T05:59:28;4.25;3.75;3.00
72509;PMS5003;60532;56.114;40.350;2023-04-30T06:01:29;5.75;5.00;3.25
72509;PMS5003;60532;56.114;40.350;2023-04-30T06:03:29;5.00;5.00;2.75
72509;PMS5003;60532;56.114;40.350;2023-04-30T06:05:30;1.00;1.00;1.00
72509;PMS5003;60532;56.114;40.350;2023-04-30T06:07:30;4.75;3.50;3.00
72509;PMS5003;60532;56.114;40.350;2023-04-30T06:09:31;3.75;3.75;2.75
72509;PMS5003;60532;56.114;40.350;2023-04-30T06:11:31;6.75;4.25;3.00
72509;PMS5003;60532;56.114;40.350;2023-04-30T06:13:32;4.50;4.50;2.75
72509;PMS5003;60532;56.114;40.350;2023-04-30T06:15:32;5.75;4.50;2.75
72509;PMS5003;60532;56.114;40.350;2023-04-30T06:17:33;3.75;3.00;1.25
72509;PMS5003;60532;56.114;40.350;2023-04-30T06:19:33;3.25;3.25;2.25
72509;PMS5003;60532;56.114;40.350;2023-04-30T06:21:34;5.25;5.00;2.00
72509;PMS5003;60532;56.114;40.350;2023-04-30T06:23:35;3.75;3.75;2.25
72509;PMS5003;60532;56.114;40.350;2023-04-30T06:25:37;6.00;6.00;3.00
72509;PMS5003;60532;56.114;40.350;2023-04-30T06:27:38;4.00;4.00;2.00
72509;PMS5003;60532;56.114;40.350;2023-04-30T06:29:39;5.00;5.00;3.00
72509;PMS5003;60532;56.114;40.350;2023-04-30T06:31:39;5.00;5.00;3.00
72509;PMS5003;60532;56.114;40.350;2023-04-30T06:33:40;4.00;4.00;2.00
72509;PMS5003;60532;56.114;40.350;2023-04-30T06:35:40;5.50;5.00;3.00
72509;PMS5003;60532;56.114;40.350;2023-04-30T06:37:41;4.75;4.75;4.00
72509;PMS5003;60532;56.114;40.350;2023-04-30T06:39:42;4.25;4.00;3.00
72509;PMS5003;60532;56.114;40.350;2023-04-30T06:41:42;5.50;4.75;2.00
72509;PMS5003;60532;56.114;40.350;2023-04-30T06:43:43;2.75;2.75;1.00
72509;PMS5003;60532;56.114;40.350;2023-04-30T06:45:44;3.00;3.00;2.00
72509;PMS5003;60532;56.114;40.350;2023-04-30T06:47:44;3.25;3.25;2.75
72509;PMS5003;60532;56.114;40.350;2023-04-30T06:49:46;3.60;3.60;3.00
72509;PMS5003;60532;56.114;40.350;2023-04-30T06:51:46;3.25;3.25;2.75
72509;PMS5003;60532;56.114;40.350;2023-04-30T06:53:47;5.50;3.75;1.00
72509;PMS5003;60532;56.114;40.350;2023-04-30T06:55:47;7.00;5.50;3.00
72509;PMS5003;60532;56.114;40.350;2023-04-30T06:57:48;5.20;5.20;3.00
72509;PMS5003;60532;56.114;40.350;2023-04-30T06:59:49;4.00;4.00;2.00
72509;PMS5003;60532;56.114;40.350;2023-04-30T07:01:50;5.60;5.60;3.80
72509;PMS5003;60532;56.114;40.350;2023-04-30T07:03:50;5.25;5.00;2.25
72509;PMS5003;60532;56.114;40.350;2023-04-30T07:05:51;5.80;5.80;3.00
72509;PMS5003;60532;56.114;40.350;2023-04-30T07:07:53;4.00;4.00;2.80
72509;PMS5003;60532;56.114;40.350;2023-04-30T07:09:53;5.00;5.00;3.00
72509;PMS5003;60532;56.114;40.350;2023-04-30T07:11:54;7.00;5.00;3.00
72509;PMS5003;60532;56.114;40.350;2023-04-30T07:13:54;4.00;4.00;2.00
72509;PMS5003;60532;56.114;40.350;2023-04-30T07:15:55;6.00;4.80;2.00
72509;PMS5003;60532;56.114;40.350;2023-04-30T07:17:56;4.00;4.00;2.00
72509;PMS5003;60532;56.114;40.350;2023-04-30T07:19:57;4.50;4.00;2.75
72509;PMS5003;60532;56.114;40.350;2023-04-30T07:21:57;4.00;4.00;3.00
72509;PMS5003;60532;56.114;40.350;2023-04-30T07:23:58;5.00;5.00;2.75
72509;PMS5003;60532;56.114;40.350;2023-04-30T07:25:58;7.75;5.25;3.00
72509;PMS5003;60532;56.114;40.350;2023-04-30T07:27:59;6.20;5.00;4.00
72509;PMS5003;60532;56.114;40.350;2023-04-30T07:30:00;8.25;5.00;2.75
72509;PMS5003;60532;56.114;40.350;2023-04-30T07:32:00;5.50;5.00;2.75
72509;PMS5003;60532;56.114;40.350;2023-04-30T07:34:02;6.20;6.20;3.00
72509;PMS5003;60532;56.114;40.350;2023-04-30T07:36:02;7.00;7.00;3.00
72509;PMS5003;60532;56.114;40.350;2023-04-30T07:38:03;6.25;6.25;4.00
72509;PMS5003;60532;56.114;40.350;2023-04-30T07:40:05;4.60;4.00;2.00
72509;PMS5003;60532;56.114;40.350;2023-04-30T07:42:07;5.20;5.20;3.00
72509;PMS5003;60532;56.114;40.350;2023-04-30T07:44:07;4.00;4.00;2.00
72509;PMS5003;60532;56.114;40.350;2023-04-30T07:46:08;5.00;5.00;2.00
72509;PMS5003;60532;56.114;40.350;2023-04-30T07:48:09;7.00;6.00;4.00
72509;PMS5003;60532;56.114;40.350;2023-04-30T07:50:09;4.50;4.50;2.50
72509;PMS5003;60532;56.114;40.350;2023-04-30T07:52:11;5.60;4.60;3.00
72509;PMS5003;60532;56.114;40.350;2023-04-30T07:54:12;5.75;5.00;3.00
72509;PMS5003;60532;56.114;40.350;2023-04-30T07:56:12;5.00;5.00;2.50
72509;PMS5003;60532;56.114;40.350;2023-04-30T07:58:13;5.00;3.50;2.50
72509;PMS5003;60532;56.114;40.350;2023-04-30T08:00:13;3.00;3.00;2.00
72509;PMS5003;60532;56.114;40.350;2023-04-30T08:02:14;3.00;3.00;1.80
72509;PMS5003;60532;56.114;40.350;2023-04-30T08:04:16;6.60;4.40;2.20
72509;PMS5003;60532;56.114;40.350;2023-04-30T08:06:16;3.25;3.00;2.00
72509;PMS5003;60532;56.114;40.350;2023-04-30T08:08:17;2.75;2.75;1.00
72509;PMS5003;60532;56.114;40.350;2023-04-30T08:10:17;4.00;4.00;2.00
72509;PMS5003;60532;56.114;40.350;2023-04-30T08:12:18;4.00;2.50;2.00
72509;PMS5003;60532;56.114;40.350;2023-04-30T08:14:19;6.25;5.00;2.25
72509;PMS5003;60532;56.114;40.350;2023-04-30T08:16:19;4.40;4.40;2.00
72509;PMS5003;60532;56.114;40.350;2023-04-30T08:18:20;4.00;4.00;2.50
72509;PMS5003;60532;56.114;40.350;2023-04-30T08:20:20;6.00;4.00;1.25
72509;PMS5003;60532;56.114;40.350;2023-04-30T08:22:22;3.20;3.20;2.00
72509;PMS5003;60532;56.114;40.350;2023-04-30T08:24:23;3.25;3.25;1.75
72509;PMS5003;60532;56.114;40.350;2023-04-30T08:26:24;5.00;4.00;2.00
72509;PMS5003;60532;56.114;40.350;2023-04-30T08:28:25;5.20;4.00;1.80
72509;PMS5003;60532;56.114;40.350;2023-04-30T08:30:25;4.25;4.00;2.00
72509;PMS5003;60532;56.114;40.350;2023-04-30T08:32:26;2.00;2.00;1.00
72509;PMS5003;60532;56.114;40.350;2023-04-30T08:34:27;5.00;5.00;2.60
72509;PMS5003;60532;56.114;40.350;2023-04-30T08:36:27;8.20;6.60;3.60
72509;PMS5003;60532;56.114;40.350;2023-04-30T08:38:28;4.00;4.00;2.25
72509;PMS5003;60532;56.114;40.350;2023-04-30T08:40:29;3.00;3.00;2.00
72509;PMS5003;60532;56.114;40.350;2023-04-30T08:42:30;4.00;4.00;2.00
72509;PMS5003;60532;56.114;40.350;2023-04-30T08:44:33;3.40;3.40;1.40
72509;PMS5003;60532;56.114;40.350;2023-04-30T08:46:35;5.00;3.80;2.00
72509;PMS5003;60532;56.114;40.350;2023-04-30T08:48:37;3.80;3.20;2.00
72509;PMS5003;60532;56.114;40.350;2023-04-30T08:50:38;3.60;3.00;1.80
72509;PMS5003;60532;56.114;40.350;2023-04-30T08:52:39;3.75;3.00;1.00
72509;PMS5003;60532;56.114;40.350;2023-04-30T08:54:41;5.00;4.00;2.00
72509;PMS5003;60532;56.114;40.350;2023-04-30T08:56:46;6.20;4.00;2.00
72509;PMS5003;60532;56.114;40.350;2023-04-30T08:58:47;4.00;3.00;2.00
72509;PMS5003;60532;56.114;40.350;2023-04-30T09:00:47;3.25;3.25;2.00
72509;PMS5003;60532;56.114;40.350;2023-04-30T09:02:48;3.00;3.00;2.00
72509;PMS5003;60532;56.114;40.350;2023-04-30T09:04:48;3.00;3.00;2.00
72509;PMS5003;60532;56.114;40.350;2023-04-30T09:06:51;4.00;3.25;1.50
72509;PMS5003;60532;56.114;40.350;2023-04-30T09:08:51;3.00;3.00;2.00
72509;PMS5003;60532;56.114;40.350;2023-04-30T09:10:53;2.00;2.00;2.00
72509;PMS5003;60532;56.114;40.350;2023-04-30T09:13:00;2.50;2.50;1.00
72509;PMS5003;60532;56.114;40.350;2023-04-30T09:15:04;2.80;2.00;1.00
72509;PMS5003;60532;56.114;40.350;2023-04-30T09:17:05;4.80;4.60;2.00
72509;PMS5003;60532;56.114;40.350;2023-04-30T09:19:06;3.20;3.20;1.00
72509;PMS5003;60532;56.114;40.350;2023-04-30T09:21:06;3.25;3.25;1.50
72509;PMS5003;60532;56.114;40.350;2023-04-30T09:23:08;3.80;3.00;1.00
72509;PMS5003;60532;56.114;40.350;2023-04-30T09:25:09;3.80;3.00;1.80
72509;PMS5003;60532;56.114;40.350;2023-04-30T09:27:18;3.00;3.00;1.00
72509;PMS5003;60532;56.114;40.350;2023-04-30T09:29:18;3.20;3.20;2.00
72509;PMS5003;60532;56.114;40.350;2023-04-30T09:31:19;5.75;4.25;1.00
72509;PMS5003;60532;56.114;40.350;2023-04-30T09:33:21;4.60;1.80;0.60
72509;PMS5003;60532;56.114;40.350;2023-04-30T09:35:31;7.25;3.00;1.00
72509;PMS5003;60532;56.114;40.350;2023-04-30T09:37:37;3.00;3.00;1.00
72509;PMS5003;60532;56.114;40.350;2023-04-30T09:39:48;3.00;2.00;1.00
72509;PMS5003;60532;56.114;40.350;2023-04-30T09:41:50;3.00;3.00;1.00
72509;PMS5003;60532;56.114;40.350;2023-04-30T09:43:51;3.20;3.20;1.00
72509;PMS5003;60532;56.114;40.350;2023-04-30T09:45:52;1.80;1.80;1.00
72509;PMS5003;60532;56.114;40.350;2023-04-30T09:47:52;2.00;2.00;0.25
72509;PMS5003;60532;56.114;40.350;2023-04-30T09:49:53;3.00;3.00;1.50
72509;PMS5003;60532;56.114;40.350;2023-04-30T09:51:57;4.25;3.75;1.00
72509;PMS5003;60532;56.114;40.350;2023-04-30T09:53:58;4.00;3.80;1.80
72509;PMS5003;60532;56.114;40.350;2023-04-30T09:56:01;2.80;2.00;1.00
72509;PMS5003;60532;56.114;40.350;2023-04-30T09:58:03;2.00;1.50;1.00
72509;PMS5003;60532;56.114;40.350;2023-04-30T10:00:04;1.60;1.60;1.00
72509;PMS5003;60532;56.114;40.350;2023-04-30T10:02:07;3.00;3.00;1.60
72509;PMS5003;60532;56.114;40.350;2023-04-30T10:04:08;4.00;4.00;2.00
72509;PMS5003;60532;56.114;40.350;2023-04-30T10:06:11;3.75;3.00;1.00
72509;PMS5003;60532;56.114;40.350;2023-04-30T10:08:12;2.60;2.60;2.00
72509;PMS5003;60532;56.114;40.350;2023-04-30T10:10:14;5.40;2.00;1.80
72509;PMS5003;60532;56.114;40.350;2023-04-30T10:12:19;3.20;2.00;0.60
72509;PMS5003;60532;56.114;40.350;2023-04-30T10:14:19;2.00;2.00;1.00
72509;PMS5003;60532;56.114;40.350;2023-04-30T10:18:38;2.60;2.60;2.00
72509;PMS5003;60532;56.114;40.350;2023-04-30T10:20:38;3.80;3.20;1.00
72509;PMS5003;60532;56.114;40.350;2023-04-30T10:22:40;2.20;2.20;1.00
72509;PMS5003;60532;56.114;40.350;2023-04-30T10:24:41;3.00;2.25;1.75
72509;PMS5003;60532;56.114;40.350;2023-04-30T10:26:42;2.60;2.60;2.00
72509;PMS5003;60532;56.114;40.350;2023-04-30T10:28:42;2.25;2.25;2.00
72509;PMS5003;60532;56.114;40.350;2023-04-30T10:30:43;3.40;3.40;2.00
72509;PMS5003;60532;56.114;40.350;2023-04-30T10:37:06;3.60;3.00;1.00
72509;PMS5003;60532;56.114;40.350;2023-04-30T10:39:10;6.00;3.00;2.00
72509;PMS5003;60532;56.114;40.350;2023-04-30T10:41:12;5.60;5.60;2.00
72509;PMS5003;60532;56.114;40.350;2023-04-30T10:43:12;3.00;3.00;2.00
72509;PMS5003;60532;56.114;40.350;2023-04-30T10:45:14;3.00;3.00;2.00
72509;PMS5003;60532;56.114;40.350;2023-04-30T10:47:15;4.20;4.00;2.00
72509;PMS5003;60532;56.114;40.350;2023-04-30T10:49:23;8.75;3.00;2.00
72509;PMS5003;60532;56.114;40.350;2023-04-30T10:51:23;3.00;1.80;1.40
72509;PMS5003;60532;56.114;40.350;2023-04-30T10:53:43;2.00;2.00;1.00
72509;PMS5003;60532;56.114;40.350;2023-04-30T10:57:54;2.60;2.60;1.00
72509;PMS5003;60532;56.114;40.350;2023-04-30T11:02:07;3.00;3.00;2.00
72509;PMS5003;60532;56.114;40.350;2023-04-30T11:04:10;4.80;2.40;2.00
72509;PMS5003;60532;56.114;40.350;2023-04-30T11:06:14;2.75;2.00;2.00
72509;PMS5003;60532;56.114;40.350;2023-04-30T11:08:14;3.00;3.00;2.00
72509;PMS5003;60532;56.114;40.350;2023-04-30T11:10:15;6.25;4.00;2.50
72509;PMS5003;60532;56.114;40.350;2023-04-30T11:12:19;5.80;5.80;3.00
72509;PMS5003;60532;56.114;40.350;2023-04-30T11:14:27;3.00;3.00;1.00
72509;PMS5003;60532;56.114;40.350;2023-04-30T11:16:33;4.20;4.20;2.20
72509;PMS5003;60532;56.114;40.350;2023-04-30T11:18:34;2.00;2.00;1.00
72509;PMS5003;60532;56.114;40.350;2023-04-30T11:20:40;4.00;3.40;2.00
72509;PMS5003;60532;56.114;40.350;2023-04-30T11:22:41;3.00;3.00;1.40
72509;PMS5003;60532;56.114;40.350;2023-04-30T11:25:03;3.25;3.00;2.00
72509;PMS5003;60532;56.114;40.350;2023-04-30T11:27:04;4.00;2.60;1.00
72509;PMS5003;60532;56.114;40.350;2023-04-30T11:29:05;4.50;4.50;2.00
72509;PMS5003;60532;56.114;40.350;2023-04-30T11:31:06;2.00;2.00;1.00
72509;PMS5003;60532;56.114;40.350;2023-04-30T11:33:07;6.00;2.75;1.00
72509;PMS5003;60532;56.114;40.350;2023-04-30T11:35:08;3.80;2.80;1.40
72509;PMS5003;60532;56.114;40.350;2023-04-30T11:37:08;3.75;3.00;2.00
72509;PMS5003;60532;56.114;40.350;2023-04-30T11:39:12;9.60;7.80;3.00
72509;PMS5003;60532;56.114;40.350;2023-04-30T11:41:12;5.00;4.00;2.25
72509;PMS5003;60532;56.114;40.350;2023-04-30T11:43:26;2.00;2.00;1.00
72509;PMS5003;60532;56.114;40.350;2023-04-30T11:45:27;5.20;2.60;2.00
72509;PMS5003;60532;56.114;40.350;2023-04-30T11:47:27;5.00;4.00;3.00
72509;PMS5003;60532;56.114;40.350;2023-04-30T11:49:37;2.40;2.40;2.00
72509;PMS5003;60532;56.114;40.350;2023-04-30T11:51:37;5.25;1.25;1.00
72509;PMS5003;60532;56.114;40.350;2023-04-30T11:53:40;4.20;4.20;2.00
72509;PMS5003;60532;56.114;40.350;2023-04-30T11:55:41;5.00;2.50;2.00
72509;PMS5003;60532;56.114;40.350;2023-04-30T11:57:45;2.75;2.00;2.00
72509;PMS5003;60532;56.114;40.350;2023-04-30T11:59:46;3.00;3.00;2.00
72509;PMS5003;60532;56.114;40.350;2023-04-30T12:01:48;4.20;4.20;1.40
72509;PMS5003;60532;56.114;40.350;2023-04-30T12:03:49;6.00;5.25;2.00